Time;durP1;ratioP1;P1;durP2;ratioP2;P2;SDS_P1;SDS_P2;PMS_P1;PMS_P2;Temp;Humidity;BMP_temperature;BMP_pressure;BME280_temperature;BME280_humidity;BME280_pressure;Samples;Min_cycle;Max_cycle;Signal;HPM_P1;HPM_P2
2022/06/17 00:01:45;;;;;;;0.70;0.60;;;;;;;;;;5053914;28;20447;-72
2022/06/17 00:04:12;;;;;;;0.70;0.60;;;;;;;;;;5036659;28;20528;-72
2022/06/17 00:06:46;;;;;;;0.70;0.50;;;;;;;;;;5053076;28;20480;-72
2022/06/17 00:09:15;;;;;;;0.70;0.60;;;;;;;;;;5052695;28;20927;-72
2022/06/17 00:11:42;;;;;;;0.70;0.70;;;;;;;;;;5069284;28;20431;-71
2022/06/17 00:14:11;;;;;;;0.70;0.60;;;;;;;;;;5052658;28;20432;-71
2022/06/17 00:16:38;;;;;;;0.70;0.60;;;;;;;;;;5053319;28;20435;-71
2022/06/17 00:19:05;;;;;;;0.70;0.60;;;;;;;;;;5052453;28;21050;-71
2022/06/17 00:21:33;;;;;;;0.70;0.60;;;;;;;;;;5052285;28;20507;-72
2022/06/17 00:24:09;;;;;;;0.70;0.60;;;;;;;;;;5068756;28;20527;-72
2022/06/17 00:26:36;;;;;;;0.70;0.60;;;;;;;;;;5052376;28;20474;-72
2022/06/17 00:29:03;;;;;;;0.70;0.60;;;;;;;;;;5045818;28;20438;-74
2022/06/17 00:31:31;;;;;;;0.70;0.60;;;;;;;;;;5029051;28;20436;-74
2022/06/17 00:33:58;;;;;;;0.70;0.60;;;;;;;;;;5031352;28;20480;-72
2022/06/17 00:36:26;;;;;;;0.70;0.70;;;;;;;;;;5036753;28;20468;-72
2022/06/17 00:38:55;;;;;;;0.70;0.60;;;;;;;;;;5050979;28;20460;-72
2022/06/17 00:41:26;;;;;;;0.70;0.60;;;;;;;;;;5051321;28;20467;-71
2022/06/17 00:43:53;;;;;;;0.70;0.60;;;;;;;;;;5052116;28;20979;-72
2022/06/17 00:46:24;;;;;;;0.70;0.60;;;;;;;;;;5052901;28;20948;-71
2022/06/17 00:48:57;;;;;;;0.70;0.60;;;;;;;;;;5052255;28;20507;-71
2022/06/17 00:51:27;;;;;;;0.70;0.60;;;;;;;;;;5051835;28;20649;-71
2022/06/17 00:54:00;;;;;;;0.70;0.60;;;;;;;;;;5051961;28;20432;-72
2022/06/17 00:56:32;;;;;;;0.70;0.60;;;;;;;;;;5034997;28;20443;-74
2022/06/17 00:59:04;;;;;;;0.70;0.60;;;;;;;;;;5035931;28;20551;-74
2022/06/17 01:01:37;;;;;;;0.77;0.67;;;;;;;;;;5051991;28;20439;-72
2022/06/17 01:04:05;;;;;;;0.70;0.60;;;;;;;;;;5052034;28;20470;-72
2022/06/17 01:06:35;;;;;;;0.80;0.70;;;;;;;;;;5051864;28;20479;-72
2022/06/17 01:11:56;;;;;;;0.70;0.60;;;;;;;;;;5051706;28;20465;-73
2022/06/17 01:14:27;;;;;;;0.70;0.60;;;;;;;;;;5051202;28;20442;-73
2022/06/17 01:16:55;;;;;;;0.70;0.60;;;;;;;;;;5051665;28;20458;-73
2022/06/17 01:19:30;;;;;;;0.70;0.60;;;;;;;;;;5051596;28;21027;-72
2022/06/17 01:22:17;;;;;;;0.70;0.60;;;;;;;;;;5051619;28;20992;-73
2022/06/17 01:24:47;;;;;;;0.70;0.60;;;;;;;;;;5052007;28;20853;-73
2022/06/17 01:27:16;;;;;;;0.70;0.60;;;;;;;;;;5052809;28;20409;-72
2022/06/17 01:29:45;;;;;;;0.70;0.60;;;;;;;;;;5051881;28;20970;-73
2022/06/17 01:32:14;;;;;;;0.70;0.60;;;;;;;;;;5051077;28;20966;-73
2022/06/17 01:34:45;;;;;;;0.70;0.60;;;;;;;;;;5067953;28;20423;-72
2022/06/17 01:37:14;;;;;;;0.70;0.60;;;;;;;;;;5051587;28;20485;-72
2022/06/17 01:39:42;;;;;;;0.70;0.60;;;;;;;;;;5051262;28;20483;-72
2022/06/17 01:42:13;;;;;;;0.70;0.53;;;;;;;;;;5051526;28;20946;-74
2022/06/17 01:44:47;;;;;;;0.70;0.60;;;;;;;;;;5068051;28;20436;-72
2022/06/17 01:47:21;;;;;;;0.70;0.60;;;;;;;;;;5052910;28;20935;-73
2022/06/17 01:49:51;;;;;;;0.70;0.60;;;;;;;;;;5050530;28;20441;-72
2022/06/17 01:52:21;;;;;;;0.70;0.60;;;;;;;;;;5051004;28;20481;-72
2022/06/17 01:54:52;;;;;;;0.70;0.60;;;;;;;;;;5051500;28;20475;-73
2022/06/17 01:57:26;;;;;;;0.70;0.60;;;;;;;;;;5027255;28;20455;-72
2022/06/17 01:59:57;;;;;;;0.70;0.50;;;;;;;;;;5053286;28;20464;-72
2022/06/17 02:02:30;;;;;;;0.70;0.60;;;;;;;;;;5055034;28;20438;-72
2022/06/17 02:05:03;;;;;;;0.70;0.63;;;;;;;;;;5054837;28;20443;-73
2022/06/17 02:07:32;;;;;;;0.70;0.60;;;;;;;;;;5054712;28;20543;-72
2022/06/17 02:10:00;;;;;;;0.70;0.60;;;;;;;;;;5054501;28;20451;-73
2022/06/17 02:12:30;;;;;;;0.70;0.60;;;;;;;;;;5055104;28;20546;-74
2022/06/17 02:15:04;;;;;;;0.70;0.60;;;;;;;;;;5054786;28;20428;-73
2022/06/17 02:18:01;;;;;;;0.70;0.50;;;;;;;;;;5056163;28;20462;-72
2022/06/17 02:20:45;;;;;;;0.70;0.60;;;;;;;;;;5054387;28;20470;-73
2022/06/17 02:23:11;;;;;;;0.70;0.50;;;;;;;;;;5054469;28;20985;-72
2022/06/17 02:25:41;;;;;;;0.70;0.60;;;;;;;;;;5053536;28;20494;-72
2022/06/17 02:28:11;;;;;;;0.70;0.60;;;;;;;;;;5054439;28;20433;-73
2022/06/17 02:30:41;;;;;;;0.70;0.60;;;;;;;;;;5053980;28;20466;-73
2022/06/17 02:33:10;;;;;;;0.70;0.50;;;;;;;;;;5054655;28;20833;-74
2022/06/17 02:35:38;;;;;;;0.70;0.60;;;;;;;;;;5053499;28;20468;-73
2022/06/17 02:38:05;;;;;;;0.70;0.60;;;;;;;;;;5054622;28;20922;-73
2022/06/17 02:40:35;;;;;;;0.70;0.60;;;;;;;;;;5053730;28;20878;-72
2022/06/17 02:43:04;;;;;;;0.70;0.60;;;;;;;;;;5054065;28;20799;-72
2022/06/17 02:45:35;;;;;;;0.70;0.60;;;;;;;;;;5054009;28;20444;-72
2022/06/17 02:48:07;;;;;;;0.70;0.60;;;;;;;;;;5055290;28;20500;-74
2022/06/17 02:50:34;;;;;;;0.70;0.60;;;;;;;;;;5070573;28;20439;-73
2022/06/17 02:53:01;;;;;;;0.70;0.60;;;;;;;;;;5053848;28;20857;-72
2022/06/17 02:55:32;;;;;;;0.70;0.60;;;;;;;;;;5053688;28;20454;-72
2022/06/17 02:58:02;;;;;;;0.70;0.60;;;;;;;;;;5054013;28;20530;-72
2022/06/17 03:00:30;;;;;;;0.70;0.60;;;;;;;;;;5053475;28;20836;-72
2022/06/17 03:03:04;;;;;;;0.70;0.60;;;;;;;;;;5053459;28;20576;-73
2022/06/17 03:05:36;;;;;;;0.70;0.60;;;;;;;;;;5053900;28;20451;-73
2022/06/17 03:08:13;;;;;;;0.70;0.60;;;;;;;;;;5053509;28;20455;-72
2022/06/17 03:10:41;;;;;;;0.70;0.60;;;;;;;;;;5052088;28;20523;-72
2022/06/17 03:13:11;;;;;;;0.70;0.60;;;;;;;;;;5053689;28;20450;-72
2022/06/17 03:15:38;;;;;;;0.70;0.60;;;;;;;;;;5053869;28;20530;-72
2022/06/17 03:18:07;;;;;;;0.70;0.60;;;;;;;;;;5053184;28;20474;-72
2022/06/17 03:20:34;;;;;;;0.70;0.60;;;;;;;;;;5052691;28;20462;-73
2022/06/17 03:23:06;;;;;;;0.70;0.60;;;;;;;;;;5053263;28;20437;-72
2022/06/17 03:25:37;;;;;;;0.70;0.60;;;;;;;;;;5053713;28;20489;-72
2022/06/17 03:28:07;;;;;;;0.70;0.60;;;;;;;;;;5053171;28;20445;-73
2022/06/17 03:30:38;;;;;;;0.70;0.60;;;;;;;;;;5053246;28;20503;-72
2022/06/17 03:33:10;;;;;;;0.70;0.60;;;;;;;;;;5051119;28;20440;-72
2022/06/17 03:35:39;;;;;;;0.70;0.60;;;;;;;;;;5037016;28;20446;-73
2022/06/17 03:38:15;;;;;;;0.70;0.60;;;;;;;;;;5036340;28;20455;-73
2022/06/17 03:40:44;;;;;;;0.70;0.60;;;;;;;;;;5052634;28;20467;-74
2022/06/17 03:43:15;;;;;;;0.70;0.60;;;;;;;;;;5053168;28;20941;-72
2022/06/17 03:45:47;;;;;;;0.70;0.60;;;;;;;;;;5046734;28;20840;-72
2022/06/17 03:48:20;;;;;;;0.70;0.60;;;;;;;;;;5040366;28;20498;-72
2022/06/17 03:50:48;;;;;;;0.70;0.60;;;;;;;;;;5047017;28;20500;-73
2022/06/17 03:53:22;;;;;;;0.70;0.60;;;;;;;;;;5052680;28;20447;-77
2022/06/17 03:55:50;;;;;;;0.70;0.60;;;;;;;;;;5052348;28;20435;-73
2022/06/17 03:58:18;;;;;;;0.70;0.60;;;;;;;;;;5052099;28;20932;-72
2022/06/17 04:00:59;;;;;;;0.63;0.60;;;;;;;;;;5052484;28;20975;-73
2022/06/17 04:03:29;;;;;;;0.70;0.60;;;;;;;;;;5052856;28;20450;-73
2022/06/17 04:05:58;;;;;;;0.70;0.60;;;;;;;;;;5052496;28;21032;-73
2022/06/17 04:08:26;;;;;;;0.70;0.60;;;;;;;;;;5053634;28;20455;-72
2022/06/17 04:10:56;;;;;;;0.70;0.70;;;;;;;;;;5052289;28;20446;-73
2022/06/17 04:13:28;;;;;;;0.70;0.70;;;;;;;;;;5052662;28;20817;-72
2022/06/17 04:16:08;;;;;;;0.70;0.60;;;;;;;;;;5036767;28;20516;-71
2022/06/17 04:18:36;;;;;;;0.70;0.60;;;;;;;;;;5069088;28;20934;-72
2022/06/17 04:21:06;;;;;;;0.70;0.60;;;;;;;;;;5052141;28;20483;-73
2022/06/17 04:23:34;;;;;;;0.70;0.50;;;;;;;;;;5052087;28;20554;-73
2022/06/17 04:26:13;;;;;;;0.70;0.60;;;;;;;;;;5036030;28;20442;-72
2022/06/17 04:28:42;;;;;;;0.70;0.60;;;;;;;;;;5036148;28;20441;-73
2022/06/17 04:31:13;;;;;;;0.70;0.60;;;;;;;;;;5052080;28;20449;-72
2022/06/17 04:33:44;;;;;;;0.70;0.60;;;;;;;;;;5051923;28;20435;-72
2022/06/17 04:36:13;;;;;;;0.70;0.60;;;;;;;;;;5051615;28;20466;-73
2022/06/17 04:38:47;;;;;;;0.70;0.60;;;;;;;;;;5052232;28;20540;-72
2022/06/17 04:41:28;;;;;;;0.70;0.60;;;;;;;;;;5053435;28;20982;-73
2022/06/17 04:44:05;;;;;;;0.70;0.60;;;;;;;;;;5052265;28;20920;-72
2022/06/17 04:46:37;;;;;;;0.70;0.60;;;;;;;;;;5052866;28;20429;-72
2022/06/17 04:49:14;;;;;;;0.70;0.60;;;;;;;;;;5052362;28;20444;-72
2022/06/17 04:51:41;;;;;;;0.70;0.60;;;;;;;;;;5051870;28;20551;-72
2022/06/17 04:54:10;;;;;;;0.70;0.60;;;;;;;;;;5052140;28;20443;-72
2022/06/17 04:57:02;;;;;;;0.70;0.60;;;;;;;;;;5043331;28;20464;-72
2022/06/17 04:59:45;;;;;;;0.70;0.63;;;;;;;;;;5052191;28;20472;-72
2022/06/17 05:02:14;;;;;;;0.70;0.60;;;;;;;;;;5052626;28;20697;-73
2022/06/17 05:05:11;;;;;;;0.70;0.60;;;;;;;;;;5053047;28;20536;-73
2022/06/17 05:07:39;;;;;;;0.70;0.63;;;;;;;;;;5051639;28;20993;-73
2022/06/17 05:10:29;;;;;;;1.10;1.00;;;;;;;;;;5051595;28;20847;-74
2022/06/17 05:12:59;;;;;;;0.70;0.60;;;;;;;;;;5051574;28;20588;-73
2022/06/17 05:15:26;;;;;;;0.70;0.60;;;;;;;;;;5051675;28;20474;-73
2022/06/17 05:17:55;;;;;;;0.70;0.70;;;;;;;;;;5051524;28;20471;-73
2022/06/17 05:20:24;;;;;;;0.70;0.70;;;;;;;;;;5034800;28;20472;-72
2022/06/17 05:22:55;;;;;;;0.70;0.70;;;;;;;;;;5051744;28;20425;-72
2022/06/17 05:25:23;;;;;;;0.70;0.70;;;;;;;;;;5051211;28;20477;-73
2022/06/17 05:27:51;;;;;;;0.80;0.70;;;;;;;;;;5051259;28;20440;-73
2022/06/17 05:30:18;;;;;;;1.07;0.97;;;;;;;;;;5051279;28;20470;-72
2022/06/17 05:32:47;;;;;;;0.70;0.60;;;;;;;;;;5051754;28;20498;-73
2022/06/17 05:35:14;;;;;;;0.73;0.70;;;;;;;;;;5054386;28;20476;-72
2022/06/17 05:37:45;;;;;;;0.70;0.60;;;;;;;;;;5055107;28;20463;-73
2022/06/17 05:40:13;;;;;;;0.70;0.60;;;;;;;;;;5054330;28;21075;-73
2022/06/17 05:42:41;;;;;;;0.70;0.60;;;;;;;;;;5041046;28;20494;-72
2022/06/17 05:45:12;;;;;;;0.70;0.70;;;;;;;;;;5051482;28;20459;-73
2022/06/17 05:48:02;;;;;;;0.70;0.60;;;;;;;;;;5054749;28;20462;-72
2022/06/17 05:50:48;;;;;;;0.70;0.70;;;;;;;;;;5055705;28;20455;-73
2022/06/17 05:53:32;;;;;;;0.70;0.70;;;;;;;;;;5056757;28;20425;-73
2022/06/17 05:56:19;;;;;;;0.80;0.70;;;;;;;;;;5051400;28;20431;-74
2022/06/17 05:58:46;;;;;;;0.70;0.70;;;;;;;;;;5054796;28;20426;-72
2022/06/17 06:01:13;;;;;;;0.77;0.70;;;;;;;;;;5054837;28;20469;-72
2022/06/17 06:03:40;;;;;;;0.70;0.60;;;;;;;;;;5054438;28;20874;-72
2022/06/17 06:06:08;;;;;;;0.70;0.70;;;;;;;;;;5054653;28;20465;-72
2022/06/17 06:08:36;;;;;;;0.80;0.70;;;;;;;;;;5054376;28;20442;-72
2022/06/17 06:11:03;;;;;;;0.80;0.70;;;;;;;;;;5054570;28;20488;-73
2022/06/17 06:13:33;;;;;;;0.70;0.60;;;;;;;;;;5054567;28;20504;-71
2022/06/17 06:16:02;;;;;;;0.70;0.60;;;;;;;;;;5054859;28;20517;-72
2022/06/17 06:18:36;;;;;;;0.70;0.60;;;;;;;;;;5054519;28;20435;-74
2022/06/17 06:21:12;;;;;;;0.80;0.70;;;;;;;;;;5053967;28;20908;-72
2022/06/17 06:23:44;;;;;;;0.80;0.70;;;;;;;;;;5054101;28;20935;-72
2022/06/17 06:26:15;;;;;;;0.80;0.70;;;;;;;;;;5054431;28;20558;-72
2022/06/17 06:28:47;;;;;;;0.80;0.70;;;;;;;;;;5054591;28;20454;-72
2022/06/17 06:31:26;;;;;;;0.70;0.70;;;;;;;;;;5054218;28;20954;-72
2022/06/17 06:33:54;;;;;;;0.70;0.60;;;;;;;;;;5054336;28;20861;-72
2022/06/17 06:36:24;;;;;;;0.80;0.70;;;;;;;;;;5046659;28;20463;-73
2022/06/17 06:38:53;;;;;;;0.70;0.60;;;;;;;;;;5034205;28;20811;-73
2022/06/17 06:41:21;;;;;;;0.70;0.70;;;;;;;;;;5040146;28;20467;-72
2022/06/17 06:43:49;;;;;;;0.80;0.70;;;;;;;;;;5054247;28;20452;-72
2022/06/17 06:46:44;;;;;;;0.70;0.60;;;;;;;;;;5053873;28;20944;-73
2022/06/17 06:49:23;;;;;;;0.70;0.60;;;;;;;;;;5039666;28;20428;-72
2022/06/17 06:51:53;;;;;;;0.70;0.70;;;;;;;;;;5038102;28;20471;-72
2022/06/17 06:54:22;;;;;;;0.80;0.70;;;;;;;;;;5053700;28;21013;-72
2022/06/17 06:56:50;;;;;;;0.80;0.70;;;;;;;;;;5053100;28;20439;-73
2022/06/17 06:59:40;;;;;;;0.90;0.90;;;;;;;;;;5053619;28;20453;-72
2022/06/17 07:02:07;;;;;;;0.70;0.70;;;;;;;;;;5037019;28;20485;-72
2022/06/17 07:04:35;;;;;;;0.70;0.60;;;;;;;;;;5053268;28;20512;-72
2022/06/17 07:07:02;;;;;;;0.70;0.60;;;;;;;;;;5053573;28;20461;-73
2022/06/17 07:09:31;;;;;;;0.70;0.63;;;;;;;;;;5053724;28;20445;-73
2022/06/17 07:11:58;;;;;;;0.70;0.60;;;;;;;;;;5054676;28;20464;-72
2022/06/17 07:14:25;;;;;;;0.80;0.70;;;;;;;;;;5053688;28;20437;-73
2022/06/17 07:16:51;;;;;;;0.80;0.70;;;;;;;;;;5051781;28;20498;-72
2022/06/17 07:19:19;;;;;;;0.70;0.60;;;;;;;;;;5051948;28;20436;-73
2022/06/17 07:21:48;;;;;;;0.70;0.60;;;;;;;;;;5041585;28;20478;-73
2022/06/17 07:24:16;;;;;;;0.70;0.60;;;;;;;;;;5055049;28;20452;-74
2022/06/17 07:26:44;;;;;;;0.80;0.70;;;;;;;;;;5033309;28;20439;-72
2022/06/17 07:29:11;;;;;;;0.70;0.70;;;;;;;;;;5032994;28;20493;-72
2022/06/17 07:31:37;;;;;;;0.80;0.70;;;;;;;;;;5033221;28;20441;-73
2022/06/17 07:34:04;;;;;;;0.70;0.63;;;;;;;;;;5033134;28;20421;-73
2022/06/17 07:42:07;;;;;;;0.70;0.60;;;;;;;;;;5052042;28;20502;-72
2022/06/17 07:44:35;;;;;;;0.80;0.70;;;;;;;;;;5036544;28;20517;-72
2022/06/17 07:47:03;;;;;;;0.80;0.70;;;;;;;;;;5052941;28;20452;-72
2022/06/17 07:49:37;;;;;;;0.80;0.70;;;;;;;;;;5053678;28;20499;-72
2022/06/17 07:52:06;;;;;;;0.80;0.70;;;;;;;;;;5052698;28;20452;-73
2022/06/17 07:54:33;;;;;;;0.80;0.60;;;;;;;;;;5054243;28;20818;-72
2022/06/17 07:57:00;;;;;;;0.70;0.60;;;;;;;;;;5052059;28;20806;-72
2022/06/17 07:59:28;;;;;;;0.70;0.60;;;;;;;;;;5054762;28;20391;-73
2022/06/17 08:01:55;;;;;;;0.80;0.63;;;;;;;;;;5052430;28;20507;-73
2022/06/17 08:04:22;;;;;;;0.80;0.70;;;;;;;;;;5053906;28;20494;-73
2022/06/17 08:06:49;;;;;;;0.80;0.60;;;;;;;;;;5053183;28;20446;-72
2022/06/17 08:09:17;;;;;;;0.80;0.73;;;;;;;;;;5053429;28;20495;-73
2022/06/17 08:11:45;;;;;;;0.70;0.70;;;;;;;;;;5052437;28;20899;-73
2022/06/17 08:14:12;;;;;;;0.80;0.70;;;;;;;;;;5052526;28;20474;-73
2022/06/17 08:16:40;;;;;;;0.80;0.70;;;;;;;;;;5054293;28;20416;-73
2022/06/17 08:19:09;;;;;;;0.80;0.70;;;;;;;;;;5052294;28;20425;-73
2022/06/17 08:21:36;;;;;;;0.73;0.70;;;;;;;;;;5051616;28;20896;-73
2022/06/17 08:24:23;;;;;;;0.80;0.80;;;;;;;;;;5054010;28;20430;-73
2022/06/17 08:26:51;;;;;;;0.70;0.70;;;;;;;;;;5052184;28;20413;-72
2022/06/17 08:29:19;;;;;;;0.77;0.70;;;;;;;;;;5048926;28;20535;-73
2022/06/17 08:34:53;;;;;;;0.80;0.70;;;;;;;;;;5053760;28;20406;-73
2022/06/17 08:37:20;;;;;;;0.80;0.70;;;;;;;;;;5052301;28;20891;-74
2022/06/17 08:39:49;;;;;;;0.80;0.80;;;;;;;;;;5051914;28;20436;-74
2022/06/17 08:42:25;;;;;;;0.70;0.63;;;;;;;;;;5068245;28;20456;-73
2022/06/17 08:44:57;;;;;;;0.80;0.80;;;;;;;;;;5068522;28;20820;-73
2022/06/17 08:47:41;;;;;;;0.80;0.70;;;;;;;;;;5053540;28;20431;-74
2022/06/17 08:50:20;;;;;;;0.90;0.80;;;;;;;;;;5051844;28;20529;-74
2022/06/17 08:52:59;;;;;;;0.80;0.70;;;;;;;;;;5035466;28;20499;-75
2022/06/17 08:55:30;;;;;;;0.80;0.70;;;;;;;;;;5068428;28;20467;-75
2022/06/17 08:57:59;;;;;;;0.70;0.60;;;;;;;;;;5052820;28;20448;-74
2022/06/17 09:00:33;;;;;;;0.70;0.60;;;;;;;;;;5036075;28;20428;-74
2022/06/17 09:03:14;;;;;;;0.77;0.60;;;;;;;;;;5051883;28;20476;-75
2022/06/17 09:05:48;;;;;;;0.80;0.67;;;;;;;;;;5052083;28;20490;-73
2022/06/17 09:08:27;;;;;;;0.70;0.60;;;;;;;;;;5049002;28;20433;-74
2022/06/17 09:11:01;;;;;;;0.70;0.60;;;;;;;;;;5036504;28;20433;-74
2022/06/17 09:13:32;;;;;;;0.70;0.60;;;;;;;;;;5036002;28;20531;-76
2022/06/17 09:16:04;;;;;;;1.00;0.90;;;;;;;;;;5035804;28;20428;-76
2022/06/17 09:18:33;;;;;;;0.70;0.60;;;;;;;;;;5052707;28;20503;-75
2022/06/17 09:21:05;;;;;;;0.70;0.60;;;;;;;;;;5036491;28;20472;-74
2022/06/17 09:23:35;;;;;;;0.80;0.80;;;;;;;;;;5036315;28;20443;-74
2022/06/17 09:26:05;;;;;;;0.70;0.60;;;;;;;;;;5035838;28;20502;-74
2022/06/17 09:28:34;;;;;;;0.70;0.63;;;;;;;;;;5035862;28;20436;-74
2022/06/17 09:31:02;;;;;;;0.70;0.60;;;;;;;;;;5023892;28;20440;-75
2022/06/17 09:33:32;;;;;;;0.70;0.60;;;;;;;;;;5039213;28;20485;-74
2022/06/17 09:36:03;;;;;;;0.70;0.60;;;;;;;;;;5055412;28;20456;-75
2022/06/17 09:38:34;;;;;;;0.70;0.50;;;;;;;;;;5055736;28;20440;-74
2022/06/17 09:41:03;;;;;;;0.70;0.60;;;;;;;;;;5055222;28;20482;-75
2022/06/17 09:43:34;;;;;;;0.80;0.70;;;;;;;;;;5055456;28;20439;-75
2022/06/17 09:46:04;;;;;;;0.70;0.60;;;;;;;;;;5055868;28;20791;-74
2022/06/17 09:48:35;;;;;;;0.70;0.60;;;;;;;;;;5056913;28;20443;-75
2022/06/17 09:51:06;;;;;;;0.70;0.60;;;;;;;;;;5071339;28;20489;-75
2022/06/17 09:53:37;;;;;;;0.90;0.80;;;;;;;;;;5038853;28;20436;-75
2022/06/17 09:56:07;;;;;;;0.70;0.50;;;;;;;;;;5039164;28;20424;-74
2022/06/17 09:58:36;;;;;;;0.70;0.50;;;;;;;;;;5055150;28;20511;-74
2022/06/17 10:01:06;;;;;;;0.70;0.60;;;;;;;;;;5055455;28;20738;-73
2022/06/17 10:03:34;;;;;;;0.70;0.50;;;;;;;;;;5055531;28;20518;-73
2022/06/17 10:06:07;;;;;;;0.70;0.50;;;;;;;;;;5037032;28;20471;-75
2022/06/17 10:08:46;;;;;;;0.70;0.50;;;;;;;;;;5055293;28;20417;-75
2022/06/17 10:11:15;;;;;;;0.70;0.60;;;;;;;;;;5052076;28;20427;-76
2022/06/17 10:13:51;;;;;;;0.70;0.50;;;;;;;;;;5053184;28;20428;-75
2022/06/17 10:19:19;;;;;;;0.80;0.60;;;;;;;;;;5053293;28;20440;-75
2022/06/17 10:21:52;;;;;;;0.80;0.50;;;;;;;;;;5053079;28;20471;-75
2022/06/17 10:24:24;;;;;;;0.80;0.50;;;;;;;;;;5052790;28;20509;-77
2022/06/17 10:27:00;;;;;;;1.00;0.60;;;;;;;;;;5033219;28;20456;-75
2022/06/17 10:29:35;;;;;;;0.80;0.60;;;;;;;;;;5033580;28;20459;-75
2022/06/17 10:32:03;;;;;;;0.70;0.50;;;;;;;;;;5033455;28;20491;-74
2022/06/17 10:34:34;;;;;;;0.80;0.50;;;;;;;;;;5033380;28;20464;-75
2022/06/17 10:37:03;;;;;;;0.80;0.50;;;;;;;;;;5060154;28;20448;-77
2022/06/17 10:39:33;;;;;;;0.80;0.50;;;;;;;;;;5036720;28;20436;-76
2022/06/17 10:42:01;;;;;;;0.80;0.50;;;;;;;;;;5052727;28;20814;-77
2022/06/17 10:44:29;;;;;;;0.80;0.63;;;;;;;;;;5052967;28;20444;-75
2022/06/17 10:46:59;;;;;;;0.80;0.50;;;;;;;;;;5053423;28;20412;-75
2022/06/17 10:49:29;;;;;;;0.80;0.50;;;;;;;;;;5053066;28;20941;-75
2022/06/17 10:51:57;;;;;;;0.80;0.50;;;;;;;;;;5053209;28;20441;-76
2022/06/17 10:54:26;;;;;;;0.80;0.50;;;;;;;;;;5053094;28;20436;-74
2022/06/17 10:56:58;;;;;;;0.80;0.50;;;;;;;;;;5053260;28;20949;-77
2022/06/17 10:59:30;;;;;;;0.80;0.50;;;;;;;;;;5053847;28;20912;-75
2022/06/17 11:02:00;;;;;;;0.80;0.50;;;;;;;;;;4995625;28;1177811;-75
2022/06/17 11:04:31;;;;;;;0.80;0.50;;;;;;;;;;5054155;28;20292;-76
2022/06/17 11:07:00;;;;;;;0.90;0.70;;;;;;;;;;5054063;28;20514;-75
2022/06/17 11:09:28;;;;;;;0.80;0.50;;;;;;;;;;5054774;28;20502;-76
2022/06/17 11:12:13;;;;;;;0.90;0.60;;;;;;;;;;5053573;28;20482;-77
2022/06/17 11:14:47;;;;;;;1.03;0.93;;;;;;;;;;5053686;28;20574;-74
2022/06/17 11:17:16;;;;;;;0.80;0.50;;;;;;;;;;5053452;28;20844;-73
2022/06/17 11:19:46;;;;;;;0.80;0.50;;;;;;;;;;5037217;28;20917;-73
2022/06/17 11:22:19;;;;;;;1.00;0.80;;;;;;;;;;5053552;28;20506;-74
2022/06/17 11:24:49;;;;;;;0.90;0.60;;;;;;;;;;5053631;28;20412;-73
2022/06/17 11:27:25;;;;;;;0.80;0.50;;;;;;;;;;5052263;28;20513;-73
2022/06/17 11:29:56;;;;;;;0.90;0.70;;;;;;;;;;5054509;28;20459;-74
2022/06/17 11:32:29;;;;;;;0.80;0.60;;;;;;;;;;5052759;28;20432;-74
2022/06/17 11:34:57;;;;;;;0.80;0.70;;;;;;;;;;5053184;28;20427;-71
2022/06/17 11:37:25;;;;;;;0.93;0.60;;;;;;;;;;5053267;28;20555;-74
2022/06/17 11:40:10;;;;;;;0.80;0.50;;;;;;;;;;5054666;28;20540;-75
2022/06/17 11:42:45;;;;;;;0.80;0.50;;;;;;;;;;5053028;28;20502;-73
2022/06/17 11:45:14;;;;;;;0.90;0.70;;;;;;;;;;5053144;28;20448;-73
2022/06/17 11:47:43;;;;;;;0.80;0.60;;;;;;;;;;5054558;28;20471;-73
2022/06/17 11:50:13;;;;;;;1.00;0.60;;;;;;;;;;5053217;28;20527;-74
2022/06/17 11:52:40;;;;;;;1.27;0.77;;;;;;;;;;5028486;28;20487;-71
2022/06/17 11:55:06;;;;;;;1.00;0.70;;;;;;;;;;5040187;28;20535;-71
2022/06/17 11:57:36;;;;;;;0.90;0.70;;;;;;;;;;5016154;28;20453;-73
2022/06/17 12:00:18;;;;;;;0.80;0.57;;;;;;;;;;5033087;28;20426;-73
2022/06/17 12:02:51;;;;;;;0.80;0.50;;;;;;;;;;5032876;28;20542;-73
2022/06/17 12:05:20;;;;;;;0.90;0.67;;;;;;;;;;5032603;28;20448;-72
2022/06/17 12:07:56;;;;;;;0.80;0.50;;;;;;;;;;5034673;28;20531;-74
2022/06/17 12:10:39;;;;;;;0.80;0.60;;;;;;;;;;5036059;28;20436;-74
2022/06/17 12:13:13;;;;;;;1.10;0.70;;;;;;;;;;5035992;28;20796;-75
2022/06/17 12:15:43;;;;;;;0.90;0.67;;;;;;;;;;5052257;28;20433;-74
2022/06/17 12:18:11;;;;;;;0.80;0.50;;;;;;;;;;5052451;28;20440;-74
2022/06/17 12:20:44;;;;;;;0.80;0.60;;;;;;;;;;5051927;28;20507;-73
2022/06/17 12:23:13;;;;;;;0.90;0.77;;;;;;;;;;5053070;28;20460;-72
2022/06/17 12:25:44;;;;;;;0.80;0.50;;;;;;;;;;5053966;28;20774;-73
2022/06/17 12:28:22;;;;;;;0.80;0.50;;;;;;;;;;5053487;28;20422;-74
2022/06/17 12:30:56;;;;;;;1.00;0.67;;;;;;;;;;5052543;28;20904;-75
2022/06/17 12:33:26;;;;;;;1.63;1.07;;;;;;;;;;5052591;28;20435;-75
2022/06/17 12:35:57;;;;;;;0.80;0.50;;;;;;;;;;5035388;28;20456;-75
2022/06/17 12:38:33;;;;;;;0.97;0.57;;;;;;;;;;5053220;28;20519;-71
2022/06/17 12:41:03;;;;;;;3.53;1.53;;;;;;;;;;5051987;28;20551;-71
2022/06/17 12:43:33;;;;;;;0.90;0.57;;;;;;;;;;5051655;28;20463;-71
2022/06/17 12:46:02;;;;;;;0.90;0.77;;;;;;;;;;5050778;28;20432;-74
2022/06/17 12:48:33;;;;;;;0.90;0.60;;;;;;;;;;5051375;28;20932;-71
2022/06/17 12:53:54;;;;;;;1.03;0.93;;;;;;;;;;5053067;28;20416;-75
2022/06/17 12:56:32;;;;;;;14.70;1.60;;;;;;;;;;5052997;28;20896;-74
2022/06/17 12:59:14;;;;;;;7.60;3.27;;;;;;;;;;5035372;28;20432;-73
2022/06/17 13:01:44;;;;;;;2.53;2.30;;;;;;;;;;5051387;28;20501;-72
2022/06/17 13:04:22;;;;;;;3.33;1.27;;;;;;;;;;5051896;28;20455;-74
2022/06/17 13:06:56;;;;;;;4.80;2.47;;;;;;;;;;5051575;28;20977;-73
2022/06/17 13:09:24;;;;;;;1.23;1.13;;;;;;;;;;5052919;28;20818;-76
2022/06/17 13:12:02;;;;;;;1.10;0.80;;;;;;;;;;5068390;28;20426;-75
2022/06/17 13:14:36;;;;;;;4.80;2.73;;;;;;;;;;5051746;28;20436;-76
2022/06/17 13:17:08;;;;;;;4.03;1.23;;;;;;;;;;5051409;28;20435;-75
2022/06/17 13:19:38;;;;;;;1.77;0.93;;;;;;;;;;5051626;28;20497;-74
2022/06/17 13:22:15;;;;;;;1.00;0.70;;;;;;;;;;5050390;28;20995;-76
2022/06/17 13:24:45;;;;;;;1.33;0.83;;;;;;;;;;5052615;28;20428;-74
2022/06/17 13:27:15;;;;;;;1.00;0.90;;;;;;;;;;5051597;28;20948;-74
2022/06/17 13:29:47;;;;;;;0.90;0.50;;;;;;;;;;5052030;28;20934;-74
2022/06/17 13:32:19;;;;;;;0.90;0.50;;;;;;;;;;5051557;28;20439;-75
2022/06/17 13:34:49;;;;;;;0.90;0.50;;;;;;;;;;5052960;28;20984;-76
2022/06/17 13:37:16;;;;;;;0.90;0.50;;;;;;;;;;5051392;28;20510;-79
2022/06/17 13:40:20;;;;;;;0.90;0.77;;;;;;;;;;5034661;28;20952;-76
2022/06/17 13:42:48;;;;;;;1.10;0.77;;;;;;;;;;5015068;28;20463;-77
2022/06/17 13:45:20;;;;;;;1.13;1.03;;;;;;;;;;5040794;28;20451;-75
2022/06/17 13:47:54;;;;;;;0.90;0.60;;;;;;;;;;5051753;28;20500;-75
2022/06/17 13:50:26;;;;;;;1.00;0.80;;;;;;;;;;5051418;28;20431;-76
2022/06/17 13:52:56;;;;;;;0.90;0.60;;;;;;;;;;5046941;28;20438;-77
2022/06/17 13:55:31;;;;;;;0.90;0.50;;;;;;;;;;5052569;28;20427;-77
2022/06/17 13:58:02;;;;;;;1.10;0.67;;;;;;;;;;5072113;28;20407;-77
2022/06/17 14:00:35;;;;;;;0.90;0.50;;;;;;;;;;5054969;28;20185;-77
2022/06/17 14:03:03;;;;;;;1.00;0.83;;;;;;;;;;5038464;28;20754;-77
2022/06/17 14:05:32;;;;;;;0.90;0.60;;;;;;;;;;5038696;28;20189;-77
2022/06/17 14:08:01;;;;;;;0.90;0.60;;;;;;;;;;5055346;28;20295;-76
2022/06/17 14:10:31;;;;;;;0.90;0.60;;;;;;;;;;5071673;28;20434;-76
2022/06/17 14:12:58;;;;;;;0.90;0.60;;;;;;;;;;5055947;28;20436;-76
2022/06/17 14:15:28;;;;;;;0.90;0.50;;;;;;;;;;5046899;28;20857;-76
2022/06/17 14:17:57;;;;;;;0.90;0.50;;;;;;;;;;5059336;28;20435;-75
2022/06/17 14:20:33;;;;;;;1.00;0.70;;;;;;;;;;5036006;28;20486;-77
2022/06/17 14:23:10;;;;;;;1.00;0.60;;;;;;;;;;5034841;28;20464;-78
2022/06/17 14:25:45;;;;;;;3.03;1.10;;;;;;;;;;5018505;28;20440;-78
2022/06/17 14:28:28;;;;;;;0.90;0.60;;;;;;;;;;5049288;28;20439;-78
2022/06/17 14:31:11;;;;;;;0.90;0.60;;;;;;;;;;5056813;28;20443;-79
2022/06/17 14:33:41;;;;;;;0.90;0.60;;;;;;;;;;5057829;28;20442;-77
2022/06/17 14:36:17;;;;;;;0.90;0.50;;;;;;;;;;5056572;28;20546;-78
2022/06/17 14:38:54;;;;;;;0.90;0.70;;;;;;;;;;5058036;28;20919;-77
2022/06/17 14:42:02;;;;;;;0.90;0.50;;;;;;;;;;5040195;28;20923;-77
2022/06/17 14:44:30;;;;;;;0.90;0.50;;;;;;;;;;5055615;28;21062;-78
2022/06/17 14:47:41;;;;;;;0.90;0.50;;;;;;;;;;5055320;28;20462;-78
2022/06/17 14:50:14;;;;;;;0.90;0.70;;;;;;;;;;5034642;28;20932;-78
2022/06/17 14:52:46;;;;;;;1.00;0.70;;;;;;;;;;5051700;28;20510;-78
2022/06/17 14:55:18;;;;;;;0.90;0.50;;;;;;;;;;5036127;28;20429;-79
2022/06/17 14:57:47;;;;;;;0.90;0.57;;;;;;;;;;5055450;28;20470;-78
2022/06/17 15:00:16;;;;;;;1.37;1.17;;;;;;;;;;5054806;28;20515;-78
2022/06/17 15:02:45;;;;;;;0.90;0.50;;;;;;;;;;5052727;28;20455;-77
2022/06/17 15:05:19;;;;;;;0.90;0.60;;;;;;;;;;5039806;28;20440;-76
2022/06/17 15:07:50;;;;;;;0.90;0.50;;;;;;;;;;5036738;28;20460;-75
2022/06/17 15:10:22;;;;;;;1.40;0.77;;;;;;;;;;5053565;28;20448;-76
2022/06/17 15:12:51;;;;;;;0.90;0.60;;;;;;;;;;5056734;28;20936;-76
2022/06/17 15:15:20;;;;;;;1.40;0.90;;;;;;;;;;5048598;28;20456;-76
2022/06/17 15:17:49;;;;;;;0.80;0.60;;;;;;;;;;5062434;28;20520;-75
2022/06/17 15:20:17;;;;;;;0.90;0.60;;;;;;;;;;5039235;28;20440;-77
2022/06/17 15:22:50;;;;;;;0.90;0.60;;;;;;;;;;5054409;28;20455;-76
2022/06/17 15:25:42;;;;;;;1.10;0.70;;;;;;;;;;5042602;28;20435;-76
2022/06/17 15:28:14;;;;;;;0.90;0.50;;;;;;;;;;5035394;28;20439;-76